sensor_id;sensor_type;location;lat;lon;timestamp;P1;durP1;ratioP1;P2;durP2;ratioP2
8993;SDS011;4532;50.886;4.700;2022-11-20T00:01:28;29.70;;;22.57;;
8993;SDS011;4532;50.886;4.700;2022-11-20T00:03:57;29.57;;;22.37;;
8993;SDS011;4532;50.886;4.700;2022-11-20T00:06:25;32.60;;;24.37;;
8993;SDS011;4532;50.886;4.700;2022-11-20T00:08:56;28.30;;;22.23;;
8993;SDS011;4532;50.886;4.700;2022-11-20T00:11:30;30.67;;;23.17;;
8993;SDS011;4532;50.886;4.700;2022-11-20T00:14:00;30.87;;;21.97;;
8993;SDS011;4532;50.886;4.700;2022-11-20T00:16:30;30.30;;;22.67;;
8993;SDS011;4532;50.886;4.700;2022-11-20T00:19:01;29.13;;;23.17;;
8993;SDS011;4532;50.886;4.700;2022-11-20T00:21:29;31.07;;;22.33;;
8993;SDS011;4532;50.886;4.700;2022-11-20T00:23:56;30.73;;;23.77;;
8993;SDS011;4532;50.886;4.700;2022-11-20T00:26:26;30.57;;;22.87;;
8993;SDS011;4532;50.886;4.700;2022-11-20T00:28:55;31.50;;;23.20;;
8993;SDS011;4532;50.886;4.700;2022-11-20T00:31:24;28.57;;;22.43;;
8993;SDS011;4532;50.886;4.700;2022-11-20T00:33:52;29.97;;;22.70;;
8993;SDS011;4532;50.886;4.700;2022-11-20T00:36:22;27.37;;;20.83;;
8993;SDS011;4532;50.886;4.700;2022-11-20T00:38:52;28.53;;;21.60;;
8993;SDS011;4532;50.886;4.700;2022-11-20T00:41:22;30.77;;;22.30;;
8993;SDS011;4532;50.886;4.700;2022-11-20T00:43:55;30.33;;;22.93;;
8993;SDS011;4532;50.886;4.700;2022-11-20T00:46:25;28.43;;;21.83;;
8993;SDS011;4532;50.886;4.700;2022-11-20T00:48:58;27.20;;;21.77;;
8993;SDS011;4532;50.886;4.700;2022-11-20T00:51:27;27.97;;;22.13;;
8993;SDS011;4532;50.886;4.700;2022-11-20T00:53:55;29.67;;;22.03;;
8993;SDS011;4532;50.886;4.700;2022-11-20T00:56:25;29.07;;;22.37;;
8993;SDS011;4532;50.886;4.700;2022-11-20T00:58:53;28.60;;;21.10;;
8993;SDS011;4532;50.886;4.700;2022-11-20T01:01:23;28.07;;;21.80;;
8993;SDS011;4532;50.886;4.700;2022-11-20T01:03:52;28.30;;;21.83;;
8993;SDS011;4532;50.886;4.700;2022-11-20T01:06:55;28.20;;;21.90;;
8993;SDS011;4532;50.886;4.700;2022-11-20T01:09:17;30.27;;;22.13;;
8993;SDS011;4532;50.886;4.700;2022-11-20T01:11:49;29.83;;;22.20;;
8993;SDS011;4532;50.886;4.700;2022-11-20T01:14:18;28.83;;;22.17;;
8993;SDS011;4532;50.886;4.700;2022-11-20T01:16:47;29.20;;;22.93;;
8993;SDS011;4532;50.886;4.700;2022-11-20T01:19:21;28.37;;;22.13;;
8993;SDS011;4532;50.886;4.700;2022-11-20T01:21:52;31.20;;;22.20;;
8993;SDS011;4532;50.886;4.700;2022-11-20T01:24:21;31.63;;;22.30;;
8993;SDS011;4532;50.886;4.700;2022-11-20T01:26:49;33.13;;;23.50;;
8993;SDS011;4532;50.886;4.700;2022-11-20T01:29:21;30.77;;;22.70;;
8993;SDS011;4532;50.886;4.700;2022-11-20T01:31:50;32.93;;;23.43;;
8993;SDS011;4532;50.886;4.700;2022-11-20T01:34:21;29.80;;;23.07;;
8993;SDS011;4532;50.886;4.700;2022-11-20T01:36:53;33.83;;;24.57;;
8993;SDS011;4532;50.886;4.700;2022-11-20T01:39:23;33.90;;;24.23;;
8993;SDS011;4532;50.886;4.700;2022-11-20T01:41:52;34.10;;;24.17;;
8993;SDS011;4532;50.886;4.700;2022-11-20T01:44:54;31.30;;;24.73;;
8993;SDS011;4532;50.886;4.700;2022-11-20T01:50:22;33.73;;;24.77;;
8993;SDS011;4532;50.886;4.700;2022-11-20T01:53:02;34.80;;;25.03;;
8993;SDS011;4532;50.886;4.700;2022-11-20T01:55:36;31.23;;;23.60;;
8993;SDS011;4532;50.886;4.700;2022-11-20T01:58:08;31.43;;;24.13;;
8993;SDS011;4532;50.886;4.700;2022-11-20T02:00:40;31.30;;;23.80;;
8993;SDS011;4532;50.886;4.700;2022-11-20T02:03:10;31.20;;;23.30;;
8993;SDS011;4532;50.886;4.700;2022-11-20T02:05:47;33.57;;;24.10;;
8993;SDS011;4532;50.886;4.700;2022-11-20T02:08:29;32.87;;;24.00;;
8993;SDS011;4532;50.886;4.700;2022-11-20T02:11:00;32.23;;;23.17;;
8993;SDS011;4532;50.886;4.700;2022-11-20T02:13:29;33.10;;;23.33;;
8993;SDS011;4532;50.886;4.700;2022-11-20T02:16:16;36.37;;;24.20;;
8993;SDS011;4532;50.886;4.700;2022-11-20T02:18:49;34.77;;;23.23;;
8993;SDS011;4532;50.886;4.700;2022-11-20T02:27:17;37.23;;;24.07;;
8993;SDS011;4532;50.886;4.700;2022-11-20T02:34:53;35.90;;;23.87;;
8993;SDS011;4532;50.886;4.700;2022-11-20T02:37:21;32.67;;;24.47;;
8993;SDS011;4532;50.886;4.700;2022-11-20T02:39:49;36.90;;;25.37;;
8993;SDS011;4532;50.886;4.700;2022-11-20T02:42:20;37.67;;;25.17;;
8993;SDS011;4532;50.886;4.700;2022-11-20T02:44:54;40.37;;;26.80;;
8993;SDS011;4532;50.886;4.700;2022-11-20T02:47:24;36.80;;;24.60;;
8993;SDS011;4532;50.886;4.700;2022-11-20T02:49:51;36.57;;;25.10;;
8993;SDS011;4532;50.886;4.700;2022-11-20T02:52:18;39.70;;;25.40;;
8993;SDS011;4532;50.886;4.700;2022-11-20T02:54:47;37.47;;;26.13;;
8993;SDS011;4532;50.886;4.700;2022-11-20T02:57:14;40.90;;;26.67;;
8993;SDS011;4532;50.886;4.700;2022-11-20T02:59:42;39.93;;;26.37;;
8993;SDS011;4532;50.886;4.700;2022-11-20T03:02:09;41.17;;;26.47;;
8993;SDS011;4532;50.886;4.700;2022-11-20T03:04:41;40.33;;;27.20;;
8993;SDS011;4532;50.886;4.700;2022-11-20T03:07:08;38.03;;;26.07;;
8993;SDS011;4532;50.886;4.700;2022-11-20T03:09:38;42.30;;;25.90;;
8993;SDS011;4532;50.886;4.700;2022-11-20T03:12:07;42.60;;;28.03;;
8993;SDS011;4532;50.886;4.700;2022-11-20T03:14:35;45.20;;;28.67;;
8993;SDS011;4532;50.886;4.700;2022-11-20T03:17:02;42.17;;;27.27;;
8993;SDS011;4532;50.886;4.700;2022-11-20T03:19:29;43.57;;;26.83;;
8993;SDS011;4532;50.886;4.700;2022-11-20T03:21:56;43.77;;;28.80;;
8993;SDS011;4532;50.886;4.700;2022-11-20T03:24:23;43.83;;;27.67;;
8993;SDS011;4532;50.886;4.700;2022-11-20T03:26:55;44.17;;;28.40;;
8993;SDS011;4532;50.886;4.700;2022-11-20T03:29:22;46.03;;;29.07;;
8993;SDS011;4532;50.886;4.700;2022-11-20T03:31:52;45.07;;;29.13;;
8993;SDS011;4532;50.886;4.700;2022-11-20T03:34:19;44.77;;;27.33;;
8993;SDS011;4532;50.886;4.700;2022-11-20T03:36:48;46.33;;;28.17;;
8993;SDS011;4532;50.886;4.700;2022-11-20T03:39:19;43.30;;;28.33;;
8993;SDS011;4532;50.886;4.700;2022-11-20T03:41:51;45.23;;;28.20;;
8993;SDS011;4532;50.886;4.700;2022-11-20T03:44:20;45.93;;;29.07;;
8993;SDS011;4532;50.886;4.700;2022-11-20T03:46:47;44.90;;;27.97;;
8993;SDS011;4532;50.886;4.700;2022-11-20T03:49:18;45.67;;;28.13;;
8993;SDS011;4532;50.886;4.700;2022-11-20T03:51:45;45.57;;;27.03;;
8993;SDS011;4532;50.886;4.700;2022-11-20T03:54:14;45.60;;;28.77;;
8993;SDS011;4532;50.886;4.700;2022-11-20T03:56:43;43.20;;;27.40;;
8993;SDS011;4532;50.886;4.700;2022-11-20T03:59:10;45.47;;;28.00;;
8993;SDS011;4532;50.886;4.700;2022-11-20T04:01:37;40.70;;;26.57;;
8993;SDS011;4532;50.886;4.700;2022-11-20T04:04:13;44.53;;;28.10;;
8993;SDS011;4532;50.886;4.700;2022-11-20T04:06:43;41.00;;;27.37;;
8993;SDS011;4532;50.886;4.700;2022-11-20T04:09:12;41.77;;;25.53;;
8993;SDS011;4532;50.886;4.700;2022-11-20T04:11:39;42.20;;;26.60;;
8993;SDS011;4532;50.886;4.700;2022-11-20T04:14:11;41.40;;;27.60;;
8993;SDS011;4532;50.886;4.700;2022-11-20T04:16:40;43.90;;;28.20;;
8993;SDS011;4532;50.886;4.700;2022-11-20T04:19:10;41.40;;;26.03;;
8993;SDS011;4532;50.886;4.700;2022-11-20T04:21:44;39.77;;;26.37;;
8993;SDS011;4532;50.886;4.700;2022-11-20T04:24:15;37.87;;;26.30;;
8993;SDS011;4532;50.886;4.700;2022-11-20T04:26:47;44.13;;;27.33;;
8993;SDS011;4532;50.886;4.700;2022-11-20T04:29:14;40.57;;;26.23;;
8993;SDS011;4532;50.886;4.700;2022-11-20T04:31:43;42.93;;;27.13;;
8993;SDS011;4532;50.886;4.700;2022-11-20T04:34:15;38.07;;;26.77;;
8993;SDS011;4532;50.886;4.700;2022-11-20T04:36:46;44.77;;;27.53;;
8993;SDS011;4532;50.886;4.700;2022-11-20T04:39:16;39.07;;;26.80;;
8993;SDS011;4532;50.886;4.700;2022-11-20T04:41:46;38.27;;;26.27;;
8993;SDS011;4532;50.886;4.700;2022-11-20T04:44:15;41.20;;;26.17;;
8993;SDS011;4532;50.886;4.700;2022-11-20T04:46:47;39.00;;;24.73;;
8993;SDS011;4532;50.886;4.700;2022-11-20T04:49:15;39.23;;;27.03;;
8993;SDS011;4532;50.886;4.700;2022-11-20T04:51:42;38.80;;;25.07;;
8993;SDS011;4532;50.886;4.700;2022-11-20T04:54:09;37.13;;;24.13;;
8993;SDS011;4532;50.886;4.700;2022-11-20T04:56:40;38.90;;;25.40;;
8993;SDS011;4532;50.886;4.700;2022-11-20T04:59:07;45.47;;;25.87;;
8993;SDS011;4532;50.886;4.700;2022-11-20T05:01:39;38.87;;;24.63;;
8993;SDS011;4532;50.886;4.700;2022-11-20T05:04:08;35.07;;;23.00;;
8993;SDS011;4532;50.886;4.700;2022-11-20T05:06:37;41.50;;;25.17;;
8993;SDS011;4532;50.886;4.700;2022-11-20T05:09:07;39.17;;;25.47;;
8993;SDS011;4532;50.886;4.700;2022-11-20T05:11:37;38.57;;;23.50;;
8993;SDS011;4532;50.886;4.700;2022-11-20T05:14:06;37.77;;;24.40;;
8993;SDS011;4532;50.886;4.700;2022-11-20T05:16:33;34.87;;;24.13;;
8993;SDS011;4532;50.886;4.700;2022-11-20T05:19:01;36.27;;;24.70;;
8993;SDS011;4532;50.886;4.700;2022-11-20T05:21:30;35.07;;;23.03;;
8993;SDS011;4532;50.886;4.700;2022-11-20T05:23:58;33.17;;;23.27;;
8993;SDS011;4532;50.886;4.700;2022-11-20T05:26:28;33.90;;;23.53;;
8993;SDS011;4532;50.886;4.700;2022-11-20T05:28:55;37.90;;;24.70;;
8993;SDS011;4532;50.886;4.700;2022-11-20T05:31:24;34.27;;;22.93;;
8993;SDS011;4532;50.886;4.700;2022-11-20T05:33:56;32.47;;;21.77;;
8993;SDS011;4532;50.886;4.700;2022-11-20T05:36:23;36.73;;;21.83;;
8993;SDS011;4532;50.886;4.700;2022-11-20T05:38:51;34.27;;;22.77;;
8993;SDS011;4532;50.886;4.700;2022-11-20T05:41:25;33.03;;;22.00;;
8993;SDS011;4532;50.886;4.700;2022-11-20T05:43:55;36.07;;;23.67;;
8993;SDS011;4532;50.886;4.700;2022-11-20T05:46:25;32.73;;;22.50;;
8993;SDS011;4532;50.886;4.700;2022-11-20T05:48:57;38.20;;;23.90;;
8993;SDS011;4532;50.886;4.700;2022-11-20T05:51:25;36.67;;;24.00;;
8993;SDS011;4532;50.886;4.700;2022-11-20T05:53:58;39.17;;;23.97;;
8993;SDS011;4532;50.886;4.700;2022-11-20T05:56:28;36.63;;;22.73;;
8993;SDS011;4532;50.886;4.700;2022-11-20T05:58:55;35.93;;;22.30;;
8993;SDS011;4532;50.886;4.700;2022-11-20T06:01:27;35.90;;;23.07;;
8993;SDS011;4532;50.886;4.700;2022-11-20T06:03:54;35.37;;;23.73;;
8993;SDS011;4532;50.886;4.700;2022-11-20T06:06:21;34.40;;;23.37;;
8993;SDS011;4532;50.886;4.700;2022-11-20T06:08:54;34.63;;;22.20;;
8993;SDS011;4532;50.886;4.700;2022-11-20T06:11:25;38.07;;;24.43;;
8993;SDS011;4532;50.886;4.700;2022-11-20T06:13:52;38.50;;;23.53;;
8993;SDS011;4532;50.886;4.700;2022-11-20T06:16:26;35.70;;;22.80;;
8993;SDS011;4532;50.886;4.700;2022-11-20T06:18:58;36.20;;;21.97;;
8993;SDS011;4532;50.886;4.700;2022-11-20T06:21:25;33.87;;;22.27;;
8993;SDS011;4532;50.886;4.700;2022-11-20T06:23:52;36.63;;;22.73;;
8993;SDS011;4532;50.886;4.700;2022-11-20T06:26:24;39.63;;;23.03;;
8993;SDS011;4532;50.886;4.700;2022-11-20T06:28:53;38.67;;;22.53;;
8993;SDS011;4532;50.886;4.700;2022-11-20T06:31:23;38.63;;;23.53;;
8993;SDS011;4532;50.886;4.700;2022-11-20T06:33:55;39.30;;;23.67;;
8993;SDS011;4532;50.886;4.700;2022-11-20T06:36:26;40.80;;;23.87;;
8993;SDS011;4532;50.886;4.700;2022-11-20T06:38:53;42.53;;;24.30;;
8993;SDS011;4532;50.886;4.700;2022-11-20T06:41:21;44.77;;;25.37;;
8993;SDS011;4532;50.886;4.700;2022-11-20T06:43:49;42.50;;;24.20;;
8993;SDS011;4532;50.886;4.700;2022-11-20T06:46:19;45.07;;;25.33;;
8993;SDS011;4532;50.886;4.700;2022-11-20T06:48:47;45.30;;;26.03;;
8993;SDS011;4532;50.886;4.700;2022-11-20T06:51:15;53.70;;;27.80;;
8993;SDS011;4532;50.886;4.700;2022-11-20T06:53:42;52.60;;;26.57;;
8993;SDS011;4532;50.886;4.700;2022-11-20T06:56:12;50.80;;;26.47;;
8993;SDS011;4532;50.886;4.700;2022-11-20T06:58:39;48.67;;;25.73;;
8993;SDS011;4532;50.886;4.700;2022-11-20T07:01:10;46.87;;;24.80;;
8993;SDS011;4532;50.886;4.700;2022-11-20T07:03:42;49.00;;;25.13;;
8993;SDS011;4532;50.886;4.700;2022-11-20T07:06:09;51.10;;;25.63;;
8993;SDS011;4532;50.886;4.700;2022-11-20T07:08:37;53.53;;;27.73;;
8993;SDS011;4532;50.886;4.700;2022-11-20T07:11:07;54.97;;;27.27;;
8993;SDS011;4532;50.886;4.700;2022-11-20T07:13:38;57.53;;;27.20;;
8993;SDS011;4532;50.886;4.700;2022-11-20T07:16:06;55.53;;;26.60;;
8993;SDS011;4532;50.886;4.700;2022-11-20T07:18:36;56.63;;;26.40;;
8993;SDS011;4532;50.886;4.700;2022-11-20T07:21:07;53.13;;;26.23;;
8993;SDS011;4532;50.886;4.700;2022-11-20T07:23:37;55.77;;;27.43;;
8993;SDS011;4532;50.886;4.700;2022-11-20T07:26:08;62.30;;;27.40;;
8993;SDS011;4532;50.886;4.700;2022-11-20T07:28:37;56.63;;;27.53;;
8993;SDS011;4532;50.886;4.700;2022-11-20T07:31:07;52.80;;;26.27;;
8993;SDS011;4532;50.886;4.700;2022-11-20T07:33:36;57.87;;;27.10;;
8993;SDS011;4532;50.886;4.700;2022-11-20T07:36:04;56.73;;;27.97;;
8993;SDS011;4532;50.886;4.700;2022-11-20T07:38:31;60.60;;;28.23;;
8993;SDS011;4532;50.886;4.700;2022-11-20T07:41:03;61.17;;;28.30;;
8993;SDS011;4532;50.886;4.700;2022-11-20T07:43:31;54.17;;;28.00;;
8993;SDS011;4532;50.886;4.700;2022-11-20T07:46:05;56.33;;;27.13;;
8993;SDS011;4532;50.886;4.700;2022-11-20T07:48:32;58.67;;;28.53;;
8993;SDS011;4532;50.886;4.700;2022-11-20T07:51:04;58.80;;;28.17;;
8993;SDS011;4532;50.886;4.700;2022-11-20T07:53:36;56.90;;;27.40;;
8993;SDS011;4532;50.886;4.700;2022-11-20T07:56:04;60.63;;;28.07;;
8993;SDS011;4532;50.886;4.700;2022-11-20T07:58:31;54.13;;;26.17;;
8993;SDS011;4532;50.886;4.700;2022-11-20T08:01:04;57.83;;;28.30;;
8993;SDS011;4532;50.886;4.700;2022-11-20T08:03:33;63.50;;;28.13;;
8993;SDS011;4532;50.886;4.700;2022-11-20T08:06:04;62.20;;;28.27;;
8993;SDS011;4532;50.886;4.700;2022-11-20T08:08:31;54.63;;;27.53;;
8993;SDS011;4532;50.886;4.700;2022-11-20T08:11:00;56.90;;;28.47;;
8993;SDS011;4532;50.886;4.700;2022-11-20T08:13:46;56.10;;;27.93;;
8993;SDS011;4532;50.886;4.700;2022-11-20T08:16:32;57.83;;;28.50;;
8993;SDS011;4532;50.886;4.700;2022-11-20T08:19:01;58.43;;;28.53;;
8993;SDS011;4532;50.886;4.700;2022-11-20T08:21:30;62.67;;;29.27;;
8993;SDS011;4532;50.886;4.700;2022-11-20T08:24:04;58.37;;;29.43;;
8993;SDS011;4532;50.886;4.700;2022-11-20T08:26:36;56.30;;;27.83;;
8993;SDS011;4532;50.886;4.700;2022-11-20T08:29:07;55.33;;;28.20;;
8993;SDS011;4532;50.886;4.700;2022-11-20T08:31:36;55.67;;;28.93;;
8993;SDS011;4532;50.886;4.700;2022-11-20T08:34:06;57.53;;;27.90;;
8993;SDS011;4532;50.886;4.700;2022-11-20T08:36:40;60.03;;;29.00;;
8993;SDS011;4532;50.886;4.700;2022-11-20T08:39:15;61.23;;;29.77;;
8993;SDS011;4532;50.886;4.700;2022-11-20T08:41:44;54.90;;;27.70;;
8993;SDS011;4532;50.886;4.700;2022-11-20T08:44:14;56.07;;;28.70;;
8993;SDS011;4532;50.886;4.700;2022-11-20T08:46:44;51.00;;;25.13;;
8993;SDS011;4532;50.886;4.700;2022-11-20T08:49:13;65.60;;;29.13;;
8993;SDS011;4532;50.886;4.700;2022-11-20T08:51:41;56.37;;;28.10;;
8993;SDS011;4532;50.886;4.700;2022-11-20T08:54:11;57.53;;;28.87;;
8993;SDS011;4532;50.886;4.700;2022-11-20T08:56:38;58.87;;;29.73;;
8993;SDS011;4532;50.886;4.700;2022-11-20T08:59:08;53.63;;;27.80;;
8993;SDS011;4532;50.886;4.700;2022-11-20T09:01:55;58.17;;;28.27;;
8993;SDS011;4532;50.886;4.700;2022-11-20T09:04:25;55.70;;;27.30;;
8993;SDS011;4532;50.886;4.700;2022-11-20T09:06:54;57.37;;;27.77;;
8993;SDS011;4532;50.886;4.700;2022-11-20T09:09:24;59.83;;;28.97;;
8993;SDS011;4532;50.886;4.700;2022-11-20T09:11:51;53.10;;;27.67;;
8993;SDS011;4532;50.886;4.700;2022-11-20T09:14:21;58.53;;;28.50;;
8993;SDS011;4532;50.886;4.700;2022-11-20T09:16:48;57.27;;;28.27;;
8993;SDS011;4532;50.886;4.700;2022-11-20T09:19:15;54.23;;;27.67;;
8993;SDS011;4532;50.886;4.700;2022-11-20T09:22:04;54.50;;;27.57;;
8993;SDS011;4532;50.886;4.700;2022-11-20T09:24:31;54.13;;;26.60;;
8993;SDS011;4532;50.886;4.700;2022-11-20T09:27:01;57.57;;;27.00;;
8993;SDS011;4532;50.886;4.700;2022-11-20T09:29:34;49.77;;;25.53;;
8993;SDS011;4532;50.886;4.700;2022-11-20T09:32:01;52.27;;;26.00;;
8993;SDS011;4532;50.886;4.700;2022-11-20T09:34:28;54.43;;;26.20;;
8993;SDS011;4532;50.886;4.700;2022-11-20T09:36:55;52.70;;;26.53;;
8993;SDS011;4532;50.886;4.700;2022-11-20T09:39:30;50.57;;;25.43;;
8993;SDS011;4532;50.886;4.700;2022-11-20T09:42:17;51.40;;;26.13;;
8993;SDS011;4532;50.886;4.700;2022-11-20T09:55:40;50.53;;;25.17;;
8993;SDS011;4532;50.886;4.700;2022-11-20T09:58:24;52.10;;;26.07;;
8993;SDS011;4532;50.886;4.700;2022-11-20T10:01:21;53.90;;;26.17;;
8993;SDS011;4532;50.886;4.700;2022-11-20T10:06:32;45.60;;;23.27;;
8993;SDS011;4532;50.886;4.700;2022-11-20T10:28:35;37.77;;;21.27;;
8993;SDS011;4532;50.886;4.700;2022-11-20T10:31:27;38.63;;;20.93;;
8993;SDS011;4532;50.886;4.700;2022-11-20T10:34:05;35.10;;;20.30;;
8993;SDS011;4532;50.886;4.700;2022-11-20T10:37:11;38.40;;;20.73;;
8993;SDS011;4532;50.886;4.700;2022-11-20T10:48:28;30.33;;;17.73;;
8993;SDS011;4532;50.886;4.700;2022-11-20T10:54:29;29.13;;;16.37;;
8993;SDS011;4532;50.886;4.700;2022-11-20T10:57:05;28.07;;;16.63;;
8993;SDS011;4532;50.886;4.700;2022-11-20T11:02:53;23.33;;;14.23;;
8993;SDS011;4532;50.886;4.700;2022-11-20T11:05:33;23.97;;;14.67;;
8993;SDS011;4532;50.886;4.700;2022-11-20T11:08:05;22.77;;;13.97;;
8993;SDS011;4532;50.886;4.700;2022-11-20T11:10:48;24.63;;;14.37;;
8993;SDS011;4532;50.886;4.700;2022-11-20T11:13:20;19.00;;;12.20;;
8993;SDS011;4532;50.886;4.700;2022-11-20T11:15:51;18.20;;;11.70;;
8993;SDS011;4532;50.886;4.700;2022-11-20T11:18:27;18.67;;;11.40;;
8993;SDS011;4532;50.886;4.700;2022-11-20T11:20:57;19.00;;;11.20;;
8993;SDS011;4532;50.886;4.700;2022-11-20T11:23:46;16.07;;;9.87;;
8993;SDS011;4532;50.886;4.700;2022-11-20T11:26:20;14.47;;;9.37;;
8993;SDS011;4532;50.886;4.700;2022-11-20T11:31:29;15.03;;;8.17;;
8993;SDS011;4532;50.886;4.700;2022-11-20T11:34:07;12.97;;;8.20;;
8993;SDS011;4532;50.886;4.700;2022-11-20T11:36:39;11.90;;;6.87;;
8993;SDS011;4532;50.886;4.700;2022-11-20T11:39:26;10.90;;;6.63;;
8993;SDS011;4532;50.886;4.700;2022-11-20T11:41:55;11.10;;;6.40;;
8993;SDS011;4532;50.886;4.700;2022-11-20T11:44:32;12.23;;;6.10;;
8993;SDS011;4532;50.886;4.700;2022-11-20T11:47:26;9.60;;;5.07;;
8993;SDS011;4532;50.886;4.700;2022-11-20T11:55:18;8.17;;;4.47;;
8993;SDS011;4532;50.886;4.700;2022-11-20T12:01:06;7.40;;;3.40;;
8993;SDS011;4532;50.886;4.700;2022-11-20T12:03:35;5.07;;;3.33;;
8993;SDS011;4532;50.886;4.700;2022-11-20T12:06:05;5.43;;;3.27;;
8993;SDS011;4532;50.886;4.700;2022-11-20T12:11:34;5.57;;;2.50;;
8993;SDS011;4532;50.886;4.700;2022-11-20T12:14:17;4.13;;;2.87;;
8993;SDS011;4532;50.886;4.700;2022-11-20T12:16:55;5.87;;;2.40;;
8993;SDS011;4532;50.886;4.700;2022-11-20T12:19:24;6.33;;;2.73;;
8993;SDS011;4532;50.886;4.700;2022-11-20T12:30:13;5.57;;;2.30;;
8993;SDS011;4532;50.886;4.700;2022-11-20T12:53:07;6.33;;;2.17;;
8993;SDS011;4532;50.886;4.700;2022-11-20T12:56:05;4.60;;;2.10;;
8993;SDS011;4532;50.886;4.700;2022-11-20T13:01:34;6.17;;;2.00;;
8993;SDS011;4532;50.886;4.700;2022-11-20T13:07:03;5.50;;;2.53;;
8993;SDS011;4532;50.886;4.700;2022-11-20T13:09:35;4.57;;;2.27;;
8993;SDS011;4532;50.886;4.700;2022-11-20T13:15:05;6.47;;;2.40;;
8993;SDS011;4532;50.886;4.700;2022-11-20T13:20:25;6.63;;;2.67;;
8993;SDS011;4532;50.886;4.700;2022-11-20T13:23:03;4.40;;;2.17;;
8993;SDS011;4532;50.886;4.700;2022-11-20T13:30:48;5.47;;;2.40;;
8993;SDS011;4532;50.886;4.700;2022-11-20T13:33:30;4.73;;;2.43;;
8993;SDS011;4532;50.886;4.700;2022-11-20T13:36:02;3.83;;;2.70;;
8993;SDS011;4532;50.886;4.700;2022-11-20T13:38:50;4.93;;;2.80;;
8993;SDS011;4532;50.886;4.700;2022-11-20T13:46:40;6.20;;;3.03;;
8993;SDS011;4532;50.886;4.700;2022-11-20T13:51:49;7.13;;;3.43;;
8993;SDS011;4532;50.886;4.700;2022-11-20T14:00:24;4.50;;;2.57;;
8993;SDS011;4532;50.886;4.700;2022-11-20T14:05:46;6.73;;;2.50;;
8993;SDS011;4532;50.886;4.700;2022-11-20T14:08:40;5.17;;;2.27;;
8993;SDS011;4532;50.886;4.700;2022-11-20T14:16:24;4.53;;;1.90;;
8993;SDS011;4532;50.886;4.700;2022-11-20T14:18:55;4.47;;;2.17;;
8993;SDS011;4532;50.886;4.700;2022-11-20T14:21:45;2.87;;;2.00;;
8993;SDS011;4532;50.886;4.700;2022-11-20T14:24:23;2.97;;;1.90;;
8993;SDS011;4532;50.886;4.700;2022-11-20T14:26:55;3.97;;;1.80;;
8993;SDS011;4532;50.886;4.700;2022-11-20T14:29:23;3.43;;;1.70;;
8993;SDS011;4532;50.886;4.700;2022-11-20T14:31:57;2.50;;;1.60;;
8993;SDS011;4532;50.886;4.700;2022-11-20T14:34:25;4.00;;;2.10;;
8993;SDS011;4532;50.886;4.700;2022-11-20T14:37:00;2.23;;;1.40;;
8993;SDS011;4532;50.886;4.700;2022-11-20T14:39:37;2.33;;;1.60;;
8993;SDS011;4532;50.886;4.700;2022-11-20T14:42:25;2.20;;;1.50;;
8993;SDS011;4532;50.886;4.700;2022-11-20T14:44:58;3.17;;;1.50;;
8993;SDS011;4532;50.886;4.700;2022-11-20T14:47:27;4.37;;;1.70;;
8993;SDS011;4532;50.886;4.700;2022-11-20T14:50:00;3.20;;;1.83;;
8993;SDS011;4532;50.886;4.700;2022-11-20T14:52:36;4.07;;;1.90;;
8993;SDS011;4532;50.886;4.700;2022-11-20T14:58:05;3.33;;;2.03;;
8993;SDS011;4532;50.886;4.700;2022-11-20T15:00:56;2.67;;;1.67;;
8993;SDS011;4532;50.886;4.700;2022-11-20T15:03:30;1.53;;;1.30;;
8993;SDS011;4532;50.886;4.700;2022-11-20T15:06:03;1.67;;;1.43;;
8993;SDS011;4532;50.886;4.700;2022-11-20T15:08:34;3.10;;;1.80;;
8993;SDS011;4532;50.886;4.700;2022-11-20T15:11:01;2.40;;;1.60;;
8993;SDS011;4532;50.886;4.700;2022-11-20T15:13:30;2.00;;;1.40;;
8993;SDS011;4532;50.886;4.700;2022-11-20T15:16:00;3.40;;;1.47;;
8993;SDS011;4532;50.886;4.700;2022-11-20T15:18:38;1.93;;;1.50;;
8993;SDS011;4532;50.886;4.700;2022-11-20T15:21:10;1.70;;;1.30;;
8993;SDS011;4532;50.886;4.700;2022-11-20T15:23:42;1.90;;;1.50;;
8993;SDS011;4532;50.886;4.700;2022-11-20T15:26:10;1.63;;;1.50;;
8993;SDS011;4532;50.886;4.700;2022-11-20T15:28:45;2.03;;;1.60;;
8993;SDS011;4532;50.886;4.700;2022-11-20T15:31:17;2.27;;;1.70;;
8993;SDS011;4532;50.886;4.700;2022-11-20T15:33:47;3.33;;;1.77;;
8993;SDS011;4532;50.886;4.700;2022-11-20T15:36:14;2.80;;;2.03;;
8993;SDS011;4532;50.886;4.700;2022-11-20T15:38:44;3.70;;;2.27;;
8993;SDS011;4532;50.886;4.700;2022-11-20T15:41:11;3.90;;;2.30;;
8993;SDS011;4532;50.886;4.700;2022-11-20T15:43:38;4.53;;;3.17;;
8993;SDS011;4532;50.886;4.700;2022-11-20T15:46:13;7.30;;;2.80;;
8993;SDS011;4532;50.886;4.700;2022-11-20T15:48:56;4.70;;;2.80;;
8993;SDS011;4532;50.886;4.700;2022-11-20T15:51:27;4.90;;;3.13;;
8993;SDS011;4532;50.886;4.700;2022-11-20T15:53:59;4.73;;;2.90;;
8993;SDS011;4532;50.886;4.700;2022-11-20T15:56:26;5.07;;;3.10;;
8993;SDS011;4532;50.886;4.700;2022-11-20T15:58:53;7.23;;;3.33;;
8993;SDS011;4532;50.886;4.700;2022-11-20T16:01:22;5.93;;;2.97;;
8993;SDS011;4532;50.886;4.700;2022-11-20T16:03:49;5.23;;;3.10;;
8993;SDS011;4532;50.886;4.700;2022-11-20T16:06:17;4.83;;;3.30;;
8993;SDS011;4532;50.886;4.700;2022-11-20T16:08:46;4.97;;;2.80;;
8993;SDS011;4532;50.886;4.700;2022-11-20T16:11:16;4.90;;;3.10;;
8993;SDS011;4532;50.886;4.700;2022-11-20T16:13:51;5.93;;;3.47;;
8993;SDS011;4532;50.886;4.700;2022-11-20T16:16:39;8.10;;;3.37;;
8993;SDS011;4532;50.886;4.700;2022-11-20T16:19:15;6.37;;;3.03;;
8993;SDS011;4532;50.886;4.700;2022-11-20T16:21:43;7.70;;;3.27;;
8993;SDS011;4532;50.886;4.700;2022-11-20T16:24:12;6.73;;;3.00;;
8993;SDS011;4532;50.886;4.700;2022-11-20T16:26:43;6.53;;;3.27;;
8993;SDS011;4532;50.886;4.700;2022-11-20T16:29:10;7.80;;;3.73;;
8993;SDS011;4532;50.886;4.700;2022-11-20T16:31:37;7.40;;;3.83;;
8993;SDS011;4532;50.886;4.700;2022-11-20T16:34:06;9.17;;;3.40;;
8993;SDS011;4532;50.886;4.700;2022-11-20T16:36:40;8.63;;;3.60;;
8993;SDS011;4532;50.886;4.700;2022-11-20T16:39:10;11.60;;;3.30;;
8993;SDS011;4532;50.886;4.700;2022-11-20T16:41:38;7.20;;;3.67;;
8993;SDS011;4532;50.886;4.700;2022-11-20T16:44:06;11.43;;;3.50;;
8993;SDS011;4532;50.886;4.700;2022-11-20T16:46:38;10.97;;;3.33;;
8993;SDS011;4532;50.886;4.700;2022-11-20T16:49:15;7.17;;;3.13;;
8993;SDS011;4532;50.886;4.700;2022-11-20T16:51:49;9.33;;;2.87;;
8993;SDS011;4532;50.886;4.700;2022-11-20T16:54:17;10.83;;;2.97;;
8993;SDS011;4532;50.886;4.700;2022-11-20T16:56:47;9.57;;;3.33;;
8993;SDS011;4532;50.886;4.700;2022-11-20T16:59:17;14.07;;;3.30;;
8993;SDS011;4532;50.886;4.700;2022-11-20T17:01:47;10.37;;;3.00;;
8993;SDS011;4532;50.886;4.700;2022-11-20T17:04:16;11.57;;;3.57;;
8993;SDS011;4532;50.886;4.700;2022-11-20T17:06:46;10.73;;;3.10;;
8993;SDS011;4532;50.886;4.700;2022-11-20T17:09:15;10.27;;;3.80;;
8993;SDS011;4532;50.886;4.700;2022-11-20T17:11:46;10.03;;;3.80;;
8993;SDS011;4532;50.886;4.700;2022-11-20T17:14:16;10.93;;;3.50;;
8993;SDS011;4532;50.886;4.700;2022-11-20T17:16:47;14.17;;;3.07;;
8993;SDS011;4532;50.886;4.700;2022-11-20T17:19:14;17.90;;;3.93;;
8993;SDS011;4532;50.886;4.700;2022-11-20T17:21:42;10.60;;;2.97;;
8993;SDS011;4532;50.886;4.700;2022-11-20T17:24:10;12.70;;;3.30;;
8993;SDS011;4532;50.886;4.700;2022-11-20T17:26:41;14.13;;;3.57;;
8993;SDS011;4532;50.886;4.700;2022-11-20T17:29:13;14.70;;;2.70;;
8993;SDS011;4532;50.886;4.700;2022-11-20T17:31:49;10.60;;;2.70;;
8993;SDS011;4532;50.886;4.700;2022-11-20T17:34:19;9.90;;;2.47;;
8993;SDS011;4532;50.886;4.700;2022-11-20T17:36:46;10.30;;;2.43;;
8993;SDS011;4532;50.886;4.700;2022-11-20T17:39:16;9.07;;;2.20;;
8993;SDS011;4532;50.886;4.700;2022-11-20T17:41:46;13.67;;;2.37;;
8993;SDS011;4532;50.886;4.700;2022-11-20T17:44:33;5.57;;;1.70;;
8993;SDS011;4532;50.886;4.700;2022-11-20T17:47:03;6.90;;;1.43;;
8993;SDS011;4532;50.886;4.700;2022-11-20T17:49:33;3.80;;;1.20;;